createdAt,value
2019-04-16T00:00:50.782Z,9.37
2019-04-16T00:03:20.385Z,9.47
2019-04-16T00:06:06.133Z,9.13
2019-04-16T00:08:45.143Z,9.00
2019-04-16T00:11:17.997Z,9.13
2019-04-16T00:13:48.052Z,9.80
2019-04-16T00:16:16.481Z,9.00
2019-04-16T00:18:56.672Z,9.63
2019-04-16T00:21:16.822Z,9.30
2019-04-16T00:23:52.843Z,8.90
2019-04-16T00:26:21.245Z,9.28
2019-04-16T00:28:49.688Z,9.03
2019-04-16T00:31:18.275Z,8.97
2019-04-16T00:33:46.697Z,9.30
2019-04-16T00:36:17.828Z,8.90
2019-04-16T00:38:45.485Z,9.07
2019-04-16T00:41:13.913Z,8.87
2019-04-16T00:43:44.123Z,8.70
2019-04-16T00:46:12.538Z,8.77
2019-04-16T00:48:40.953Z,9.23
2019-04-16T00:51:09.438Z,8.40
2019-04-16T00:53:39.208Z,9.30
2019-04-16T00:56:08.714Z,9.10
2019-04-16T00:58:37.233Z,9.23
2019-04-16T01:01:05.678Z,9.27
2019-04-16T01:03:34.087Z,9.30
2019-04-16T01:06:06.791Z,9.63
2019-04-16T01:08:33.437Z,9.43
2019-04-16T01:11:01.858Z,8.87
2019-04-16T01:13:30.388Z,9.77
2019-04-16T01:16:02.501Z,8.87
2019-04-16T01:18:28.937Z,8.60
2019-04-16T01:20:57.759Z,9.13
2019-04-16T01:23:26.183Z,7.93
2019-04-16T01:25:55.676Z,9.00
2019-04-16T01:28:38.761Z,8.23
2019-04-16T01:31:08.848Z,8.77
2019-04-16T01:33:43.414Z,9.27
2019-04-16T01:36:29.461Z,8.60
2019-04-16T01:39:14.976Z,8.93
2019-04-16T01:41:29.677Z,9.00
2019-04-16T01:44:17.473Z,9.07
2019-04-16T01:46:45.866Z,9.27
2019-04-16T01:49:14.269Z,9.00
2019-04-16T01:51:44.677Z,8.90
2019-04-16T01:54:12.851Z,8.50
2019-04-16T01:56:41.265Z,9.50
2019-04-16T01:59:09.694Z,9.03
2019-04-16T02:01:40.329Z,9.63
2019-04-16T02:04:08.287Z,8.97
2019-04-16T02:06:36.710Z,8.83
2019-04-16T02:09:07.050Z,9.13
2019-04-16T02:11:35.489Z,8.80
2019-04-16T02:14:04.724Z,8.93
2019-04-16T02:16:33.152Z,9.07
2019-04-16T02:19:02.416Z,9.73
2019-04-16T02:21:31.249Z,9.13
2019-04-16T02:23:59.984Z,9.57
2019-04-16T02:26:28.457Z,9.03
2019-04-16T02:28:58.919Z,9.30
2019-04-16T02:31:27.026Z,9.33
2019-04-16T02:33:55.457Z,8.90
2019-04-16T02:36:23.862Z,8.90
2019-04-16T02:38:53.116Z,9.10
2019-04-16T02:41:23.283Z,9.37
2019-04-16T02:43:52.450Z,9.30
2019-04-16T02:46:20.865Z,8.90
2019-04-16T02:48:51.363Z,9.40
2019-04-16T02:51:39.583Z,9.87
2019-04-16T02:54:14.035Z,9.63
2019-04-16T02:56:59.432Z,10.00
2019-04-16T02:59:29.534Z,8.43
2019-04-16T03:02:02.444Z,9.47
2019-04-16T03:04:41.372Z,9.17
2019-04-16T03:07:09.903Z,9.53
2019-04-16T03:09:40.189Z,9.60
2019-04-16T03:12:08.522Z,10.00
2019-04-16T03:14:37.056Z,9.13
2019-04-16T03:17:12.990Z,9.83
2019-04-16T03:19:43.008Z,9.60
2019-04-16T03:22:11.414Z,9.93
2019-04-16T03:24:40.352Z,10.13
2019-04-16T03:27:09.451Z,10.00
2019-04-16T03:29:37.852Z,10.30
2019-04-16T03:32:06.341Z,10.20
2019-04-16T03:34:34.780Z,10.57
2019-04-16T03:37:03.759Z,10.23
2019-04-16T03:39:32.257Z,10.77
2019-04-16T03:42:00.662Z,10.63
2019-04-16T03:44:29.101Z,10.80
2019-04-16T03:46:57.526Z,11.23
2019-04-16T03:49:27.667Z,9.83
2019-04-16T03:51:56.089Z,10.33
2019-04-16T03:54:24.494Z,10.37
2019-04-16T03:56:52.895Z,10.23
2019-04-16T03:59:22.016Z,10.10
2019-04-16T04:01:50.417Z,9.63
2019-04-16T04:04:18.827Z,9.97
2019-04-16T04:06:47.259Z,10.40
2019-04-16T04:09:18.577Z,10.93
2019-04-16T04:11:45.850Z,11.07
2019-04-16T04:14:14.364Z,11.80
2019-04-16T04:16:42.845Z,11.47
2019-04-16T04:19:14.112Z,9.87
2019-04-16T04:21:41.395Z,11.30
2019-04-16T04:24:09.799Z,10.40
2019-04-16T04:26:41.083Z,10.70
2019-04-16T04:29:08.365Z,10.37
2019-04-16T04:31:36.773Z,11.33
2019-04-16T04:34:05.217Z,10.70
2019-04-16T04:36:33.616Z,11.33
2019-04-16T04:39:02.078Z,11.27
2019-04-16T04:41:30.505Z,11.07
2019-04-16T04:44:03.866Z,11.23
2019-04-16T04:46:29.030Z,11.87
2019-04-16T04:49:00.197Z,10.93
2019-04-16T04:51:27.825Z,10.77
2019-04-16T04:53:56.230Z,11.63
2019-04-16T04:56:27.744Z,11.33
2019-04-16T04:58:54.830Z,11.03
2019-04-16T05:01:23.284Z,11.00
2019-04-16T05:04:02.574Z,11.20
2019-04-16T05:06:32.881Z,11.23
2019-04-16T05:09:01.485Z,11.63
2019-04-16T05:11:29.985Z,11.10
2019-04-16T05:13:58.395Z,11.10
2019-04-16T05:16:26.794Z,11.47
2019-04-16T05:18:55.241Z,11.90
2019-04-16T05:21:23.655Z,11.53
2019-04-16T05:23:57.196Z,11.90
2019-04-16T05:26:22.201Z,11.40
2019-04-16T05:28:50.793Z,11.67
2019-04-16T05:31:24.307Z,11.10
2019-04-16T05:33:49.329Z,11.07
2019-04-16T05:36:20.725Z,11.57
2019-04-16T05:38:47.890Z,11.20
2019-04-16T05:41:20.362Z,10.77
2019-04-16T05:43:46.741Z,11.03
2019-04-16T05:46:15.296Z,10.10
2019-04-16T05:48:43.980Z,11.80
2019-04-16T05:51:12.591Z,11.90
2019-04-16T05:53:42.693Z,11.23
2019-04-16T05:56:15.442Z,11.57
2019-04-16T05:58:43.858Z,11.57
2019-04-16T06:01:30.345Z,11.10
2019-04-16T06:03:58.755Z,10.60
2019-04-16T06:06:28.779Z,10.23
2019-04-16T06:08:57.313Z,10.83
2019-04-16T06:11:29.762Z,11.60
2019-04-16T06:14:00.620Z,11.17
2019-04-16T06:16:36.591Z,10.90
2019-04-16T06:19:11.447Z,11.30
2019-04-16T06:21:57.786Z,10.13
2019-04-16T06:24:40.177Z,10.57
2019-04-16T06:27:12.738Z,11.23
2019-04-16T06:29:51.790Z,10.70
2019-04-16T06:32:36.945Z,10.70
2019-04-16T06:35:07.153Z,10.03
2019-04-16T06:37:53.429Z,10.00
2019-04-16T06:40:23.773Z,10.03
2019-04-16T06:42:54.099Z,9.73
2019-04-16T06:45:25.407Z,10.50
2019-04-16T06:47:55.457Z,10.20
2019-04-16T06:50:40.911Z,10.10
2019-04-16T06:53:26.173Z,10.00
2019-04-16T06:56:02.299Z,10.67
2019-04-16T06:58:49.908Z,11.30
2019-04-16T07:01:10.128Z,10.47
2019-04-16T07:03:43.105Z,9.30
2019-04-16T07:06:22.085Z,10.10
2019-04-16T07:08:58.191Z,10.70
2019-04-16T07:11:28.208Z,10.33
2019-04-16T07:13:56.622Z,9.90
2019-04-16T07:16:28.144Z,10.07
2019-04-16T07:18:55.743Z,9.63
2019-04-16T07:21:24.154Z,10.43
2019-04-16T07:23:56.821Z,10.40
2019-04-16T07:26:22.884Z,10.00
2019-04-16T07:28:58.990Z,10.30
2019-04-16T07:31:34.493Z,10.43
2019-04-16T07:34:04.710Z,10.07
2019-04-16T07:36:34.872Z,10.30
2019-04-16T07:39:06.518Z,10.30
2019-04-16T07:41:48.686Z,9.80
2019-04-16T07:44:22.150Z,10.77
2019-04-16T07:47:06.997Z,10.27
2019-04-16T07:49:43.346Z,10.20
2019-04-16T07:52:13.398Z,10.63
2019-04-16T07:54:49.145Z,10.93
2019-04-16T07:57:17.632Z,11.10
2019-04-16T07:59:46.075Z,10.63
2019-04-16T08:02:17.399Z,10.65
2019-04-16T08:04:44.733Z,10.10
2019-04-16T08:07:13.138Z,10.73
2019-04-16T08:09:41.625Z,10.90
2019-04-16T08:12:22.312Z,10.37
2019-04-16T08:14:40.740Z,11.03
2019-04-16T08:17:09.143Z,11.20
2019-04-16T08:19:37.783Z,11.50
2019-04-16T08:22:06.563Z,11.30
2019-04-16T08:24:36.747Z,11.57
2019-04-16T08:27:05.211Z,11.73
2019-04-16T08:29:33.612Z,11.33
2019-04-16T08:32:02.027Z,11.60
2019-04-16T08:34:30.466Z,15.23
2019-04-16T08:36:58.906Z,11.30
2019-04-16T08:39:27.370Z,11.23
2019-04-16T08:41:55.802Z,11.40
2019-04-16T08:44:24.221Z,11.17
2019-04-16T08:46:52.653Z,11.37
2019-04-16T08:49:22.477Z,11.93
2019-04-16T08:51:51.210Z,11.10
2019-04-16T08:54:20.377Z,11.87
2019-04-16T08:56:48.786Z,12.07
2019-04-16T08:59:17.193Z,11.90
2019-04-16T09:01:45.782Z,12.33
2019-04-16T09:04:14.195Z,11.43
2019-04-16T09:06:46.088Z,11.77
2019-04-16T09:09:30.931Z,12.80
2019-04-16T09:12:01.445Z,12.43
2019-04-16T09:14:31.509Z,11.93
2019-04-16T09:17:10.949Z,12.47
2019-04-16T09:19:41.731Z,12.83
2019-04-16T09:22:15.739Z,12.20
2019-04-16T09:24:44.383Z,12.80
2019-04-16T09:27:28.614Z,13.17
2019-04-16T09:30:16.848Z,13.17
2019-04-16T09:32:48.487Z,13.53
2019-04-16T09:35:21.609Z,13.77
2019-04-16T09:37:57.433Z,14.03
2019-04-16T09:40:44.269Z,12.83
2019-04-16T09:43:17.251Z,14.07
2019-04-16T09:45:44.455Z,13.10
2019-04-16T09:48:13.225Z,13.38
2019-04-16T09:50:46.536Z,13.80
2019-04-16T09:53:12.320Z,13.73
2019-04-16T09:55:40.839Z,14.10
2019-04-16T09:58:16.805Z,14.17
2019-04-16T10:00:47.170Z,13.97
2019-04-16T10:03:32.597Z,14.43
2019-04-16T10:06:00.999Z,14.30
2019-04-16T10:08:29.589Z,13.40
2019-04-16T10:11:02.744Z,15.23
2019-04-16T10:13:35.693Z,14.40
2019-04-16T10:16:01.093Z,16.07
2019-04-16T10:18:34.403Z,14.77
2019-04-16T10:20:59.648Z,15.43
2019-04-16T10:23:32.488Z,15.30
2019-04-16T10:26:00.971Z,15.10
2019-04-16T10:28:34.011Z,14.63
2019-04-16T10:31:01.235Z,15.00
2019-04-16T10:33:29.706Z,15.43
2019-04-16T10:36:01.036Z,16.17
2019-04-16T10:38:33.552Z,16.37
2019-04-16T10:41:03.603Z,16.10
2019-04-16T10:43:49.974Z,16.20
2019-04-16T10:46:23.146Z,15.20
2019-04-16T10:48:53.485Z,15.20
2019-04-16T10:51:40.525Z,15.53
2019-04-16T10:54:25.799Z,15.50
2019-04-16T10:57:05.223Z,15.20
2019-04-16T10:59:53.705Z,14.50
2019-04-16T11:02:39.724Z,13.33
2019-04-16T11:05:19.254Z,13.13
2019-04-16T11:07:47.864Z,12.57
2019-04-16T11:10:16.585Z,13.50
2019-04-16T11:12:45.093Z,13.23
2019-04-16T11:15:15.898Z,14.03
2019-04-16T11:17:44.392Z,14.03
2019-04-16T11:20:13.049Z,14.33
2019-04-16T11:22:41.496Z,13.07
2019-04-16T11:25:10.003Z,13.13
2019-04-16T11:27:39.501Z,14.03
2019-04-16T11:30:12.094Z,13.60
2019-04-16T11:32:40.535Z,14.90
2019-04-16T11:35:09.390Z,15.00
2019-04-16T11:37:37.827Z,15.00
2019-04-16T11:40:06.521Z,14.50
2019-04-16T11:42:34.987Z,13.53
2019-04-16T11:45:05.603Z,13.77
2019-04-16T11:47:34.903Z,15.10
2019-04-16T11:50:05.148Z,14.77
2019-04-16T11:52:33.668Z,15.50
2019-04-16T11:55:03.822Z,14.47
2019-04-16T11:57:33.252Z,16.70
2019-04-16T12:00:07.647Z,14.10
2019-04-16T12:02:41.559Z,13.63
2019-04-16T12:05:17.699Z,14.00
2019-04-16T12:07:51.374Z,13.17
2019-04-16T12:10:27.451Z,12.77
2019-04-16T12:13:13.810Z,12.57
2019-04-16T12:15:46.584Z,13.27
2019-04-16T12:18:22.917Z,11.57
2019-04-16T12:20:56.153Z,12.60
2019-04-16T12:23:42.901Z,12.53
2019-04-16T12:26:18.968Z,12.80
2019-04-16T12:28:59.244Z,12.80
2019-04-16T12:31:47.306Z,12.63
2019-04-16T12:34:20.428Z,11.83
2019-04-16T12:36:50.541Z,11.63
2019-04-16T12:39:37.367Z,12.13
2019-04-16T12:42:16.520Z,10.87
2019-04-16T12:44:52.611Z,12.23
2019-04-16T12:47:25.818Z,12.23
2019-04-16T12:50:08.328Z,10.07
2019-04-16T12:52:55.820Z,10.73
2019-04-16T12:55:31.355Z,10.30
2019-04-16T12:58:04.402Z,9.70
2019-04-16T13:00:52.544Z,10.87
2019-04-16T13:03:28.607Z,10.57
2019-04-16T13:06:15.019Z,9.53
2019-04-16T13:09:01.255Z,8.93
2019-04-16T13:11:36.808Z,8.70
2019-04-16T13:14:15.900Z,8.33
2019-04-16T13:16:57.907Z,8.47
2019-04-16T13:19:40.059Z,8.07
2019-04-16T13:22:10.118Z,7.93
2019-04-16T13:24:43.071Z,7.67
2019-04-16T13:27:13.126Z,8.03
2019-04-16T13:29:41.542Z,9.07
2019-04-16T13:32:10.017Z,7.33
2019-04-16T13:34:38.428Z,7.97
2019-04-16T13:37:06.921Z,7.00
2019-04-16T13:39:40.145Z,8.07
2019-04-16T13:42:07.730Z,7.57
2019-04-16T13:47:03.820Z,8.40
2019-04-16T13:49:42.811Z,7.90
2019-04-16T13:52:11.389Z,7.73
2019-04-16T13:54:41.504Z,8.03
2019-04-16T13:57:11.736Z,8.00
2019-04-16T14:00:04.370Z,8.00
2019-04-16T14:02:31.727Z,7.30
2019-04-16T14:05:04.278Z,7.40
2019-04-16T14:07:30.269Z,7.67
2019-04-16T14:09:59.142Z,7.20
2019-04-16T14:12:41.173Z,7.87
2019-04-16T14:14:57.813Z,7.67
2019-04-16T14:17:28.026Z,12.33
2019-04-16T14:19:56.436Z,8.30
2019-04-16T14:22:25.198Z,9.00
2019-04-16T14:24:53.646Z,8.60
2019-04-16T14:27:22.147Z,8.53
2019-04-16T14:29:50.554Z,8.90
2019-04-16T14:32:20.069Z,8.70
2019-04-16T14:34:56.183Z,8.40
2019-04-16T14:37:25.191Z,8.27
2019-04-16T14:39:55.448Z,8.37
2019-04-16T14:42:23.862Z,8.80
2019-04-16T14:44:59.907Z,7.43
2019-04-16T14:47:29.897Z,7.63
2019-04-16T14:49:58.519Z,8.50
2019-04-16T14:52:26.924Z,8.67
2019-04-16T14:55:02.441Z,8.27
2019-04-16T14:57:30.870Z,8.23
2019-04-16T15:00:17.682Z,8.40
2019-04-16T15:02:53.574Z,7.67
2019-04-16T15:05:26.580Z,7.80
2019-04-16T15:07:56.622Z,8.17
2019-04-16T15:10:29.469Z,8.27
2019-04-16T15:13:02.763Z,7.70
2019-04-16T15:15:38.894Z,7.47
2019-04-16T15:18:27.457Z,7.23
2019-04-16T15:21:13.815Z,7.67
2019-04-16T15:23:46.674Z,6.10
2019-04-16T15:26:29.035Z,7.30
2019-04-16T15:29:01.661Z,7.20
2019-04-16T15:31:43.661Z,6.83
2019-04-16T15:34:19.762Z,7.23
2019-04-16T15:36:51.885Z,6.83
2019-04-16T15:39:21.561Z,6.07
2019-04-16T15:42:00.993Z,5.77
2019-04-16T15:44:32.158Z,5.53
2019-04-16T15:47:13.367Z,5.67
2019-04-16T15:49:56.057Z,5.33
2019-04-16T15:52:46.464Z,4.90
2019-04-16T15:55:28.650Z,5.13
2019-04-16T15:58:04.609Z,4.90
2019-04-16T16:00:38.935Z,3.93
2019-04-16T16:03:25.344Z,3.87
2019-04-16T16:05:55.447Z,2.93
2019-04-16T16:08:35.834Z,2.50
2019-04-16T16:11:18.725Z,2.50
2019-04-16T16:13:47.141Z,2.23
2019-04-16T16:16:18.055Z,2.20
2019-04-16T16:18:45.715Z,2.50
2019-04-16T16:21:14.118Z,2.10
2019-04-16T16:23:42.566Z,1.93
2019-04-16T16:26:10.988Z,1.70
2019-04-16T16:28:39.374Z,1.30
2019-04-16T16:31:07.966Z,1.50
2019-04-16T16:33:36.371Z,1.43
2019-04-16T16:36:04.863Z,1.47
2019-04-16T16:38:33.418Z,1.40
2019-04-16T16:41:01.829Z,1.20
2019-04-16T16:43:30.256Z,1.33
2019-04-16T16:46:10.275Z,1.30
2019-04-16T16:48:38.779Z,1.13
2019-04-16T16:51:07.287Z,1.30
2019-04-16T16:53:39.843Z,1.30
2019-04-16T16:56:12.045Z,1.80
2019-04-16T16:58:47.523Z,2.10
2019-04-16T17:01:26.711Z,1.90
2019-04-16T17:03:56.944Z,1.40
2019-04-16T17:06:26.986Z,1.00
2019-04-16T17:08:55.381Z,1.50
2019-04-16T17:11:23.825Z,2.63
2019-04-16T17:13:52.289Z,1.43
2019-04-16T17:16:20.746Z,1.40
2019-04-16T17:18:49.444Z,1.63
2019-04-16T17:21:17.844Z,1.50
2019-04-16T17:23:46.409Z,1.40
2019-04-16T17:26:16.080Z,1.53
2019-04-16T17:28:44.977Z,1.60
2019-04-16T17:31:14.140Z,1.40
2019-04-16T17:33:42.586Z,1.30
2019-04-16T17:36:10.992Z,1.20
2019-04-16T17:38:39.389Z,1.30
2019-04-16T17:41:09.667Z,1.23
2019-04-16T17:43:42.686Z,1.20
2019-04-16T17:46:28.746Z,1.07
2019-04-16T17:48:58.778Z,1.63
2019-04-16T17:51:28.839Z,1.80
2019-04-16T17:54:01.662Z,1.90
2019-04-16T17:56:31.713Z,1.90
2019-04-16T17:59:01.745Z,2.07
2019-04-16T18:01:44.513Z,2.17
2019-04-16T18:04:14.600Z,1.83
2019-04-16T18:07:01.073Z,2.13
2019-04-16T18:09:47.461Z,3.00
2019-04-16T18:12:26.285Z,2.80
2019-04-16T18:14:59.306Z,2.23
2019-04-16T18:17:47.880Z,1.80
2019-04-16T18:20:26.926Z,1.57
2019-04-16T18:23:06.086Z,1.30
2019-04-16T18:25:56.565Z,1.40
2019-04-16T18:28:35.346Z,1.67
2019-04-16T18:31:23.357Z,1.40
2019-04-16T18:33:56.460Z,1.60
2019-04-16T18:36:26.490Z,1.50
2019-04-16T18:39:03.767Z,1.80
2019-04-16T18:41:31.054Z,1.80
2019-04-16T18:44:13.157Z,1.80
2019-04-16T18:47:04.033Z,1.80
2019-04-16T18:49:31.019Z,2.20
2019-04-16T18:51:59.534Z,1.83
2019-04-16T18:54:27.968Z,1.95
2019-04-16T18:56:56.440Z,1.90
2019-04-16T18:59:25.023Z,1.90
2019-04-16T19:01:55.072Z,1.87
2019-04-16T19:04:23.514Z,1.90
2019-04-16T19:06:52.544Z,2.10
2019-04-16T19:09:21.218Z,2.00
2019-04-16T19:11:49.834Z,2.30
2019-04-16T19:14:18.240Z,1.80
2019-04-16T19:16:47.566Z,1.80
2019-04-16T19:19:15.989Z,1.93
2019-04-16T19:21:44.423Z,2.20
2019-04-16T19:24:12.824Z,2.10
2019-04-16T19:26:41.479Z,2.10
2019-04-16T19:29:13.568Z,2.20
2019-04-16T19:31:40.004Z,2.30
2019-04-16T19:34:10.178Z,2.50
2019-04-16T19:36:38.724Z,2.10
2019-04-16T19:39:10.442Z,2.20
2019-04-16T19:41:41.039Z,2.30
2019-04-16T19:44:08.348Z,2.33
2019-04-16T19:46:36.833Z,2.93
2019-04-16T19:49:05.251Z,2.70
2019-04-16T19:51:33.893Z,2.57
2019-04-16T19:54:02.403Z,2.80
2019-04-16T19:56:33.424Z,3.03
2019-04-16T19:59:01.824Z,2.40
2019-04-16T20:01:30.222Z,2.90
2019-04-16T20:03:58.632Z,2.73
2019-04-16T20:06:27.067Z,2.80
2019-04-16T20:08:55.893Z,3.50
2019-04-16T20:11:24.371Z,3.20
2019-04-16T20:13:52.803Z,2.80
2019-04-16T20:16:21.265Z,3.07
2019-04-16T20:18:51.246Z,2.77
2019-04-16T20:21:20.035Z,3.33
2019-04-16T20:23:48.530Z,2.90
2019-04-16T20:26:16.944Z,2.70
2019-04-16T20:28:48.474Z,3.17
2019-04-16T20:31:15.738Z,2.70
2019-04-16T20:33:44.147Z,2.80
2019-04-16T20:36:12.582Z,3.00
2019-04-16T20:38:40.992Z,3.10
2019-04-16T20:41:09.441Z,3.00
2019-04-16T20:43:37.866Z,3.10
2019-04-16T20:46:06.285Z,3.20
2019-04-16T20:48:34.685Z,3.10
2019-04-16T20:51:03.118Z,3.17
2019-04-16T20:53:31.528Z,4.13
2019-04-16T20:55:59.951Z,3.60
2019-04-16T20:58:31.491Z,3.90
2019-04-16T21:01:00.375Z,3.83
2019-04-16T21:03:30.966Z,3.47
2019-04-16T21:06:00.072Z,3.53
2019-04-16T21:08:28.646Z,3.30
2019-04-16T21:10:59.493Z,3.40
2019-04-16T21:13:27.226Z,3.40
2019-04-16T21:15:57.193Z,3.80
2019-04-16T21:18:25.759Z,3.33
2019-04-16T21:20:54.404Z,3.43
2019-04-16T21:23:22.794Z,3.03
2019-04-16T21:25:51.209Z,3.20
2019-04-16T21:28:30.042Z,3.08
2019-04-16T21:31:03.035Z,3.40
2019-04-16T21:33:36.049Z,3.40
2019-04-16T21:36:11.938Z,3.43
2019-04-16T21:38:45.978Z,3.70
2019-04-16T21:41:14.511Z,3.90
2019-04-16T21:43:43.436Z,3.63
2019-04-16T21:46:11.833Z,2.90
2019-04-16T21:48:40.239Z,2.53
2019-04-16T21:51:08.699Z,2.40
2019-04-16T21:53:37.122Z,2.77
2019-04-16T21:56:07.836Z,2.40
2019-04-16T21:58:35.766Z,2.10
2019-04-16T22:01:18.037Z,2.10
2019-04-16T22:03:48.119Z,2.13
2019-04-16T22:06:19.745Z,2.07
2019-04-16T22:08:46.709Z,2.40
2019-04-16T22:11:15.117Z,2.13
2019-04-16T22:13:43.529Z,2.40
2019-04-16T22:16:11.982Z,2.27
2019-04-16T22:18:41.524Z,2.47
2019-04-16T22:21:11.649Z,2.30
2019-04-16T22:23:40.185Z,2.40
2019-04-16T22:26:10.844Z,2.37
2019-04-16T22:28:38.796Z,2.50
2019-04-16T22:31:08.944Z,2.10
2019-04-16T22:33:37.350Z,2.27
2019-04-16T22:36:05.756Z,2.50
2019-04-16T22:38:35.559Z,2.60
2019-04-16T22:41:05.607Z,2.20
2019-04-16T22:43:51.710Z,2.30
2019-04-16T22:46:24.769Z,2.20
2019-04-16T22:48:57.406Z,2.77
2019-04-16T22:51:26.205Z,2.50
2019-04-16T22:53:54.883Z,2.40
2019-04-16T22:56:28.210Z,2.20
2019-04-16T22:58:55.243Z,2.40
2019-04-16T23:01:25.295Z,2.17
2019-04-16T23:03:54.543Z,2.33
2019-04-16T23:06:23.003Z,2.20
2019-04-16T23:08:51.401Z,2.67
2019-04-16T23:11:23.234Z,2.60
2019-04-16T23:13:49.992Z,2.20
2019-04-16T23:16:18.391Z,2.10
2019-04-16T23:18:49.372Z,2.37
2019-04-16T23:21:16.959Z,2.30
2019-04-16T23:23:47.700Z,2.20
2019-04-16T23:26:15.527Z,2.30
2019-04-16T23:28:43.931Z,2.10
2019-04-16T23:31:12.338Z,2.00
2019-04-16T23:33:40.762Z,2.20
2019-04-16T23:36:09.166Z,2.00
2019-04-16T23:38:37.563Z,2.03
2019-04-16T23:41:06.003Z,2.23
2019-04-16T23:43:53.566Z,2.17
2019-04-16T23:46:39.782Z,2.10
2019-04-16T23:49:09.814Z,2.13
2019-04-16T23:51:39.848Z,1.80
2019-04-16T23:54:12.877Z,2.10
2019-04-16T23:56:42.957Z,2.40
2019-04-16T23:59:13.415Z,1.73
